Time;durP1;ratioP1;P1;durP2;ratioP2;P2;SDS_P1;SDS_P2;PMS_P1;PMS_P2;Temp;Humidity;BMP_temperature;BMP_pressure;BME280_temperature;BME280_humidity;BME280_pressure;Samples;Min_cycle;Max_cycle;Signal;HPM_P1;HPM_P2
2022/07/07 00:07:56;;;;;;;3.73;2.00;;;19.40;54.70;;;;;;20996956;28;20328;-66
2022/07/07 00:17:58;;;;;;;6.13;2.00;;;19.40;55.00;;;;;;20998195;28;20198;-63
2022/07/07 00:28:00;;;;;;;4.93;2.13;;;19.40;55.20;;;;;;20992118;28;20718;-67
2022/07/07 00:38:02;;;;;;;3.60;2.20;;;19.30;55.10;;;;;;20995061;28;20206;-65
2022/07/07 00:48:06;;;;;;;2.80;2.13;;;19.30;55.80;;;;;;20995167;28;20247;-66
2022/07/07 00:58:08;;;;;;;3.17;2.10;;;19.30;55.90;;;;;;20994163;28;20212;-69
2022/07/07 01:08:10;;;;;;;2.93;2.00;;;19.30;56.40;;;;;;20994734;28;20245;-68
2022/07/07 01:18:12;;;;;;;4.60;2.17;;;19.30;56.40;;;;;;20996306;28;20577;-68
2022/07/07 01:28:14;;;;;;;2.47;2.00;;;19.20;56.40;;;;;;20993558;28;20233;-69
2022/07/07 01:38:16;;;;;;;5.23;2.00;;;19.20;56.10;;;;;;20997964;28;20213;-70
2022/07/07 01:48:17;;;;;;;2.77;1.87;;;19.20;55.30;;;;;;21007529;28;20246;-72
2022/07/07 01:58:19;;;;;;;2.70;1.70;;;19.20;55.60;;;;;;20988810;28;20549;-67
2022/07/07 02:08:21;;;;;;;3.83;2.10;;;19.20;55.40;;;;;;21006190;28;20235;-70
2022/07/07 02:18:23;;;;;;;3.60;2.20;;;19.20;55.90;;;;;;21004581;28;20584;-64
2022/07/07 02:28:25;;;;;;;3.20;2.10;;;19.10;56.40;;;;;;21001960;28;20627;-72
2022/07/07 02:38:27;;;;;;;4.13;2.03;;;19.10;56.40;;;;;;21004427;28;20200;-68
2022/07/07 02:48:29;;;;;;;3.03;2.23;;;19.10;56.40;;;;;;21001475;28;20599;-73
2022/07/07 02:58:31;;;;;;;3.27;2.40;;;19.00;56.10;;;;;;21001910;28;20227;-71
2022/07/07 03:08:32;;;;;;;5.30;2.37;;;19.00;56.50;;;;;;21001397;28;20231;-68
2022/07/07 03:18:35;;;;;;;3.60;2.00;;;20.20;58.20;;;;;;21000132;28;20201;-65
2022/07/07 03:28:36;;;;;;;4.47;2.00;;;19.00;56.60;;;;;;20999415;28;20236;-70
2022/07/07 03:38:38;;;;;;;3.27;1.93;;;19.00;56.30;;;;;;21001219;28;20256;-68
2022/07/07 03:48:40;;;;;;;2.83;2.07;;;19.10;55.70;;;;;;21025424;28;20299;-66
2022/07/07 03:58:42;;;;;;;2.40;1.70;;;19.10;56.30;;;;;;20997486;28;20382;-66
2022/07/07 04:08:44;;;;;;;4.37;2.00;;;19.00;56.30;;;;;;20996941;28;20235;-69
2022/07/07 04:18:45;;;;;;;4.37;1.90;;;19.00;56.40;;;;;;20997594;28;20239;-68
2022/07/07 04:28:47;;;;;;;2.50;1.73;;;19.00;56.20;;;;;;20995163;28;20232;-67
2022/07/07 04:38:49;;;;;;;4.03;1.70;;;19.10;56.10;;;;;;21000774;28;20204;-66
2022/07/07 04:48:51;;;;;;;4.60;1.83;;;19.10;56.10;;;;;;20994967;28;20243;-65
2022/07/07 04:58:52;;;;;;;4.07;1.60;;;19.10;56.10;;;;;;20992856;28;20202;-67
2022/07/07 05:08:54;;;;;;;3.80;1.73;;;19.20;56.70;;;;;;20994171;28;20723;-63
2022/07/07 05:18:56;;;;;;;8.03;2.00;;;19.20;56.40;;;;;;21007898;28;20684;-67
2022/07/07 05:28:58;;;;;;;3.00;1.80;;;19.20;56.90;;;;;;21007430;28;20237;-73
2022/07/07 05:39:00;;;;;;;3.63;1.90;;;19.30;56.80;;;;;;21003974;28;20575;-72
2022/07/07 05:49:02;;;;;;;2.60;1.73;;;19.20;56.70;;;;;;21005770;28;20249;-72
2022/07/07 05:59:04;;;;;;;3.60;2.20;;;19.20;57.60;;;;;;21002726;28;20202;-72
2022/07/07 06:09:06;;;;;;;3.37;2.00;;;19.10;57.80;;;;;;21006256;28;20327;-73
2022/07/07 06:19:12;;;;;;;5.03;2.40;;;19.00;58.90;;;;;;21003075;28;20216;-72
2022/07/07 06:29:14;;;;;;;4.63;2.10;;;18.90;59.20;;;;;;21001237;28;20272;-72
2022/07/07 06:39:16;;;;;;;3.33;2.30;;;19.00;59.60;;;;;;21000803;28;20234;-71
2022/07/07 06:49:18;;;;;;;4.43;2.40;;;19.20;59.60;;;;;;21002434;28;20244;-73
2022/07/07 06:59:19;;;;;;;4.67;2.50;;;19.20;59.50;;;;;;21001154;28;20286;-72
2022/07/07 07:09:21;;;;;;;7.53;2.30;;;19.20;60.30;;;;;;20999625;28;20236;-72
2022/07/07 07:19:23;;;;;;;9.17;2.70;;;19.20;60.40;;;;;;20998994;28;20206;-70
2022/07/07 07:29:25;;;;;;;4.07;2.33;;;19.30;60.00;;;;;;20997293;28;20569;-71
2022/07/07 07:39:27;;;;;;;5.03;2.60;;;19.30;59.80;;;;;;20996622;28;20209;-72
2022/07/07 07:49:28;;;;;;;4.20;2.40;;;19.40;59.80;;;;;;21015554;28;20722;-72
2022/07/07 07:59:30;;;;;;;4.20;2.83;;;19.50;60.00;;;;;;21016019;28;20285;-72
2022/07/07 08:09:32;;;;;;;9.30;2.30;;;19.60;60.10;;;;;;20994342;28;20242;-73
2022/07/07 08:19:34;;;;;;;12.50;3.03;;;19.60;62.30;;;;;;20994776;28;20305;-71
2022/07/07 08:29:39;;;;;;;5.43;2.20;;;19.70;65.00;;;;;;20973740;28;20234;-71
2022/07/07 08:39:41;;;;;;;2.70;2.20;;;19.90;67.20;;;;;;20994065;28;20294;-72
2022/07/07 08:49:43;;;;;;;3.70;3.33;;;20.00;69.20;;;;;;21003571;28;20239;-72
2022/07/07 08:59:45;;;;;;;8.13;2.90;;;20.30;70.40;;;;;;21008954;28;20321;-72
2022/07/07 09:09:49;;;;;;;3.50;2.10;;;20.60;70.50;;;;;;21008415;28;20693;-72
2022/07/07 09:20:03;;;;;;;2.27;1.90;;;20.70;70.30;;;;;;21009887;28;20237;-71
2022/07/07 09:30:05;;;;;;;4.07;1.77;;;20.70;69.60;;;;;;21013073;28;20247;-73
2022/07/07 09:40:17;;;;;;;2.73;2.07;;;20.90;69.90;;;;;;21007425;28;20207;-72
2022/07/07 09:50:19;;;;;;;6.63;1.90;;;20.80;69.30;;;;;;21006674;28;20245;-71
2022/07/07 10:00:21;;;;;;;4.17;2.00;;;20.80;69.60;;;;;;21005726;28;20680;-72
2022/07/07 10:10:23;;;;;;;3.97;2.20;;;20.70;70.30;;;;;;21004806;28;20245;-72
2022/07/07 10:20:24;;;;;;;5.57;2.03;;;20.60;71.00;;;;;;21004307;28;20657;-72
2022/07/07 10:30:31;;;;;;;5.03;2.10;;;20.60;72.60;;;;;;21001712;28;20243;-71
2022/07/07 10:40:33;;;;;;;3.60;2.00;;;20.50;73.80;;;;;;21002103;28;20234;-72
2022/07/07 10:50:34;;;;;;;6.67;2.23;;;20.40;74.30;;;;;;21002536;28;20238;-73
2022/07/07 11:00:36;;;;;;;9.03;2.60;;;20.30;74.80;;;;;;21002182;28;20205;-72
2022/07/07 11:10:50;;;;;;;5.07;2.70;;;20.20;76.30;;;;;;20999244;28;20231;-72
2022/07/07 11:21:00;;;;;;;6.40;3.70;;;19.90;79.80;;;;;;20999939;28;20564;-72
2022/07/07 11:31:05;;;;;;;8.97;3.80;;;19.50;85.00;;;;;;20997259;28;20230;-76
2022/07/07 11:41:08;;;;;;;3.37;2.30;;;18.70;91.40;;;;;;21041961;28;20702;-71
2022/07/07 11:51:09;;;;;;;4.13;2.90;;;18.90;93.10;;;;;;21064149;28;20338;-74
2022/07/07 12:01:11;;;;;;;3.93;2.93;;;19.10;94.10;;;;;;21053352;28;20235;-70
2022/07/07 12:11:13;;;;;;;4.53;2.87;;;19.20;94.90;;;;;;21079048;28;20266;-71
2022/07/07 12:21:25;;;;;;;2.83;2.37;;;19.50;95.70;;;;;;21080019;28;20244;-71
2022/07/07 12:31:27;;;;;;;7.27;2.67;;;19.80;95.80;;;;;;21079008;28;20232;-72
2022/07/07 12:41:38;;;;;;;2.63;2.40;;;20.50;94.70;;;;;;21078201;28;20396;-70
2022/07/07 12:51:45;;;;;;;3.73;3.17;;;20.50;94.40;;;;;;21078245;28;20257;-72
2022/07/07 13:01:53;;;;;;;3.40;1.60;;;20.10;95.00;;;;;;21078705;28;20547;-69
2022/07/07 13:11:56;;;;;;;2.43;2.10;;;19.70;95.50;;;;;;21077255;28;20243;-70
2022/07/07 13:21:59;;;;;;;2.93;2.00;;;19.60;95.20;;;;;;21077096;28;20210;-71
2022/07/07 13:32:00;;;;;;;2.53;1.90;;;19.50;94.80;;;;;;21077664;28;20426;-70
2022/07/07 13:42:02;;;;;;;2.40;2.00;;;19.50;94.80;;;;;;21092856;28;20232;-71
2022/07/07 13:52:12;;;;;;;2.30;2.10;;;19.90;94.90;;;;;;21091642;28;20731;-72
2022/07/07 14:02:14;;;;;;;3.70;3.27;;;20.10;94.20;;;;;;21019797;28;20269;-71
2022/07/07 14:12:23;;;;;;;3.53;2.60;;;20.20;93.50;;;;;;21006153;28;20237;-71
2022/07/07 14:22:27;;;;;;;2.40;2.20;;;20.50;93.30;;;;;;21005453;28;20210;-71
2022/07/07 14:32:30;;;;;;;4.00;3.60;;;20.40;92.90;;;;;;21004233;28;20756;-71
2022/07/07 14:42:32;;;;;;;2.93;2.57;;;20.60;92.60;;;;;;20985273;28;20235;-69
2022/07/07 14:52:34;;;;;;;2.40;2.20;;;20.70;92.20;;;;;;21123100;28;20230;-72
2022/07/07 15:02:36;;;;;;;6.20;1.90;;;21.50;90.70;;;;;;21099195;28;20193;-72
2022/07/07 15:12:38;;;;;;;1.90;1.70;;;21.70;89.30;;;;;;21168884;28;20237;-71
2022/07/07 15:22:40;;;;;;;4.20;2.50;;;21.50;87.00;;;;;;21216947;28;20209;-70
2022/07/07 15:32:42;;;;;;;4.17;1.90;;;21.30;85.80;;;;;;21182883;28;20696;-70
2022/07/07 15:42:44;;;;;;;5.20;2.33;;;21.40;85.70;;;;;;21167813;28;20252;-66
2022/07/07 15:52:45;;;;;;;3.80;2.20;;;21.60;84.50;;;;;;21166687;28;20690;-70
2022/07/07 16:02:47;;;;;;;2.47;1.70;;;22.10;83.00;;;;;;21091018;28;20216;-77
2022/07/07 16:12:49;;;;;;;1.90;1.20;;;22.20;80.00;;;;;;21080472;28;20233;-76
2022/07/07 16:22:53;;;;;;;3.03;1.60;;;22.30;78.70;;;;;;21080267;28;20222;-71
2022/07/07 16:32:55;;;;;;;2.53;2.07;;;21.80;76.80;;;;;;21079513;28;20236;-71
2022/07/07 16:42:57;;;;;;;3.03;1.30;;;21.50;77.00;;;;;;21079309;28;20720;-71
2022/07/07 16:52:59;;;;;;;1.90;1.53;;;;;;;;;;21078743;28;20233;-71
2022/07/07 17:03:01;;;;;;;2.60;1.70;;;20.90;80.20;;;;;;21078830;28;20247;-72
2022/07/07 17:13:05;;;;;;;6.33;1.60;;;20.70;82.70;;;;;;21089758;28;20287;-65
2022/07/07 17:23:07;;;;;;;4.07;1.73;;;20.90;83.10;;;;;;21094271;28;20203;-68
2022/07/07 17:33:08;;;;;;;1.83;1.60;;;20.70;82.90;;;;;;21075656;28;20319;-65
2022/07/07 17:43:10;;;;;;;2.43;1.50;;;20.40;83.40;;;;;;21092703;28;20230;-67
2022/07/07 17:53:12;;;;;;;5.77;1.70;;;20.20;84.30;;;;;;21091764;28;20235;-68
2022/07/07 18:03:14;;;;;;;2.73;1.47;;;20.00;85.20;;;;;;21084958;28;20204;-65
2022/07/07 18:13:18;;;;;;;6.27;1.73;;;20.00;85.70;;;;;;21089697;28;20586;-64
2022/07/07 18:23:20;;;;;;;5.30;1.80;;;20.30;86.00;;;;;;21088472;28;20209;-66
2022/07/07 18:33:22;;;;;;;4.30;1.97;;;20.30;86.30;;;;;;21088283;28;20230;-65
2022/07/07 18:43:23;;;;;;;4.23;1.80;;;20.10;88.00;;;;;;21084841;28;20230;-68
2022/07/07 18:53:25;;;;;;;1.70;1.50;;;19.90;89.20;;;;;;21085754;28;20242;-65
2022/07/07 19:03:28;;;;;;;1.60;1.50;;;19.70;90.00;;;;;;21084746;28;20205;-66
2022/07/07 19:13:30;;;;;;;1.70;1.60;;;19.70;90.10;;;;;;21044355;28;20233;-64
2022/07/07 19:23:32;;;;;;;2.53;1.50;;;19.60;90.30;;;;;;21013579;28;20718;-65
2022/07/07 19:33:34;;;;;;;1.87;1.70;;;19.50;90.50;;;;;;21078123;28;20235;-65
2022/07/07 19:43:37;;;;;;;1.80;1.70;;;19.40;90.80;;;;;;21076320;28;20241;-66
2022/07/07 19:53:39;;;;;;;4.20;2.07;;;19.40;91.00;;;;;;21044988;28;20240;-71
2022/07/07 20:03:42;;;;;;;3.97;2.10;;;19.40;91.20;;;;;;21096568;28;20291;-74
2022/07/07 20:13:44;;;;;;;4.67;2.00;;;19.30;91.40;;;;;;21090960;28;20236;-70
2022/07/07 20:23:45;;;;;;;3.57;2.10;;;19.30;91.60;;;;;;21078249;28;20201;-68
2022/07/07 20:33:47;;;;;;;3.03;2.10;;;19.20;91.60;;;;;;21059816;28;20240;-69
2022/07/07 20:43:49;;;;;;;2.20;2.00;;;19.20;91.80;;;;;;21052060;28;20231;-69
2022/07/07 20:53:51;;;;;;;1.73;1.63;;;19.20;91.80;;;;;;21075284;28;20234;-65
2022/07/07 21:03:52;;;;;;;2.47;1.20;;;19.20;91.60;;;;;;21076158;28;20655;-64
2022/07/07 21:13:54;;;;;;;2.70;1.43;;;19.10;91.40;;;;;;21075638;28;20290;-67
2022/07/07 21:23:56;;;;;;;3.10;2.10;;;19.10;91.20;;;;;;21076279;28;20686;-68
2022/07/07 21:33:59;;;;;;;2.07;1.50;;;19.00;91.00;;;;;;21077308;28;20238;-66
2022/07/07 21:44:02;;;;;;;4.00;1.53;;;18.90;90.70;;;;;;21076849;28;20231;-68
2022/07/07 21:54:04;;;;;;;4.10;1.80;;;18.80;90.60;;;;;;21078817;28;20235;-70
2022/07/07 22:14:26;;;;;;;5.77;1.80;;;18.60;89.90;;;;;;21087155;28;20233;-65
2022/07/07 22:24:29;;;;;;;6.13;2.40;;;18.50;87.80;;;;;;21075976;28;20677;-66
2022/07/07 22:34:31;;;;;;;5.07;2.30;;;18.40;85.50;;;;;;21084912;28;20238;-66
2022/07/07 22:44:33;;;;;;;4.33;1.70;;;18.20;83.50;;;;;;21069569;28;20267;-66
2022/07/07 22:54:34;;;;;;;7.07;1.83;;;18.10;82.30;;;;;;21086965;28;20259;-63
2022/07/07 23:04:43;;;;;;;7.27;2.00;;;17.90;80.10;;;;;;21086284;28;20203;-64
2022/07/07 23:14:45;;;;;;;6.60;1.90;;;17.90;79.60;;;;;;21084892;28;20230;-65
2022/07/07 23:24:47;;;;;;;6.63;2.00;;;17.70;79.10;;;;;;21084595;28;20206;-64
2022/07/07 23:34:48;;;;;;;10.20;2.40;;;17.70;80.00;;;;;;21084111;28;20237;-65
2022/07/07 23:44:50;;;;;;;5.70;1.90;;;17.50;80.40;;;;;;21082761;28;20235;-67
2022/07/07 23:54:52;;;;;;;8.10;1.90;;;17.50;80.60;;;;;;21081980;28;20238;-63
